sensor_id;sensor_type;location;lat;lon;timestamp;temperature;humidity
6164;DHT22;3114;48.362;10.994;2022-10-16T00:02:22;16.50;99.90
6164;DHT22;3114;48.362;10.994;2022-10-16T00:04:49;16.60;99.90
6164;DHT22;3114;48.362;10.994;2022-10-16T00:07:16;16.60;99.90
6164;DHT22;3114;48.362;10.994;2022-10-16T00:09:43;16.70;99.90
6164;DHT22;3114;48.362;10.994;2022-10-16T00:12:09;16.70;99.90
6164;DHT22;3114;48.362;10.994;2022-10-16T00:14:38;16.80;99.90
6164;DHT22;3114;48.362;10.994;2022-10-16T00:17:06;16.80;99.90
6164;DHT22;3114;48.362;10.994;2022-10-16T00:19:33;16.90;99.90
6164;DHT22;3114;48.362;10.994;2022-10-16T00:21:59;16.90;99.90
6164;DHT22;3114;48.362;10.994;2022-10-16T00:24:26;16.90;99.90
6164;DHT22;3114;48.362;10.994;2022-10-16T00:26:53;16.90;99.90
6164;DHT22;3114;48.362;10.994;2022-10-16T00:29:20;16.90;99.90
6164;DHT22;3114;48.362;10.994;2022-10-16T00:31:48;16.90;99.90
6164;DHT22;3114;48.362;10.994;2022-10-16T00:34:15;16.90;99.90
6164;DHT22;3114;48.362;10.994;2022-10-16T00:36:42;17.00;99.90
6164;DHT22;3114;48.362;10.994;2022-10-16T00:39:09;17.00;99.90
6164;DHT22;3114;48.362;10.994;2022-10-16T00:41:35;17.00;99.90
6164;DHT22;3114;48.362;10.994;2022-10-16T00:44:04;17.00;99.90
6164;DHT22;3114;48.362;10.994;2022-10-16T00:46:51;17.00;99.90
6164;DHT22;3114;48.362;10.994;2022-10-16T00:49:19;17.00;99.90
6164;DHT22;3114;48.362;10.994;2022-10-16T00:51:49;17.00;99.90
6164;DHT22;3114;48.362;10.994;2022-10-16T00:54:19;17.00;99.90
6164;DHT22;3114;48.362;10.994;2022-10-16T00:56:48;16.90;99.90
6164;DHT22;3114;48.362;10.994;2022-10-16T00:59:18;17.00;99.90
6164;DHT22;3114;48.362;10.994;2022-10-16T01:01:45;16.90;99.90
6164;DHT22;3114;48.362;10.994;2022-10-16T01:04:13;16.90;99.90
6164;DHT22;3114;48.362;10.994;2022-10-16T01:06:43;17.00;99.90
6164;DHT22;3114;48.362;10.994;2022-10-16T01:09:17;16.90;99.90
6164;DHT22;3114;48.362;10.994;2022-10-16T01:11:53;16.90;99.90
6164;DHT22;3114;48.362;10.994;2022-10-16T01:14:26;16.90;99.90
6164;DHT22;3114;48.362;10.994;2022-10-16T01:17:00;17.00;99.90
6164;DHT22;3114;48.362;10.994;2022-10-16T01:19:48;17.00;99.90
6164;DHT22;3114;48.362;10.994;2022-10-16T01:22:17;16.90;99.90
6164;DHT22;3114;48.362;10.994;2022-10-16T01:24:48;16.90;99.90
6164;DHT22;3114;48.362;10.994;2022-10-16T01:27:20;16.90;99.90
6164;DHT22;3114;48.362;10.994;2022-10-16T01:29:52;16.90;99.90
6164;DHT22;3114;48.362;10.994;2022-10-16T01:32:26;16.80;99.90
6164;DHT22;3114;48.362;10.994;2022-10-16T01:34:59;16.70;99.90
6164;DHT22;3114;48.362;10.994;2022-10-16T01:37:33;16.80;99.90
6164;DHT22;3114;48.362;10.994;2022-10-16T01:40:04;16.70;99.90
6164;DHT22;3114;48.362;10.994;2022-10-16T01:42:36;16.80;99.90
6164;DHT22;3114;48.362;10.994;2022-10-16T01:45:05;16.80;99.90
6164;DHT22;3114;48.362;10.994;2022-10-16T01:47:33;16.80;99.90
6164;DHT22;3114;48.362;10.994;2022-10-16T01:50:04;16.80;99.90
6164;DHT22;3114;48.362;10.994;2022-10-16T01:52:34;16.70;99.90
6164;DHT22;3114;48.362;10.994;2022-10-16T01:55:05;16.80;99.90
6164;DHT22;3114;48.362;10.994;2022-10-16T01:57:37;16.80;99.90
6164;DHT22;3114;48.362;10.994;2022-10-16T02:00:09;16.80;99.90
6164;DHT22;3114;48.362;10.994;2022-10-16T02:02:38;16.70;99.90
6164;DHT22;3114;48.362;10.994;2022-10-16T02:05:12;16.70;99.90
6164;DHT22;3114;48.362;10.994;2022-10-16T02:07:41;16.60;99.90
6164;DHT22;3114;48.362;10.994;2022-10-16T02:10:08;16.50;99.90
6164;DHT22;3114;48.362;10.994;2022-10-16T02:12:39;16.40;99.90
6164;DHT22;3114;48.362;10.994;2022-10-16T02:15:08;16.40;99.90
6164;DHT22;3114;48.362;10.994;2022-10-16T02:17:36;16.40;99.90
6164;DHT22;3114;48.362;10.994;2022-10-16T02:20:04;16.40;99.90
6164;DHT22;3114;48.362;10.994;2022-10-16T02:22:33;16.40;99.90
6164;DHT22;3114;48.362;10.994;2022-10-16T02:25:05;16.30;99.90
6164;DHT22;3114;48.362;10.994;2022-10-16T02:27:35;16.40;99.90
6164;DHT22;3114;48.362;10.994;2022-10-16T02:30:11;16.40;99.90
6164;DHT22;3114;48.362;10.994;2022-10-16T02:32:42;16.50;99.90
6164;DHT22;3114;48.362;10.994;2022-10-16T02:35:10;16.40;99.90
6164;DHT22;3114;48.362;10.994;2022-10-16T02:37:38;16.50;99.90
6164;DHT22;3114;48.362;10.994;2022-10-16T02:40:07;16.40;99.90
6164;DHT22;3114;48.362;10.994;2022-10-16T02:42:36;16.40;99.90
6164;DHT22;3114;48.362;10.994;2022-10-16T02:45:07;16.30;99.90
6164;DHT22;3114;48.362;10.994;2022-10-16T02:47:34;16.30;99.90
6164;DHT22;3114;48.362;10.994;2022-10-16T02:50:01;16.30;99.90
6164;DHT22;3114;48.362;10.994;2022-10-16T02:52:28;16.30;99.90
6164;DHT22;3114;48.362;10.994;2022-10-16T02:54:55;16.30;99.90
6164;DHT22;3114;48.362;10.994;2022-10-16T02:57:22;16.30;99.90
6164;DHT22;3114;48.362;10.994;2022-10-16T02:59:49;16.30;99.90
6164;DHT22;3114;48.362;10.994;2022-10-16T03:02:17;16.30;99.90
6164;DHT22;3114;48.362;10.994;2022-10-16T03:04:44;16.40;99.90
6164;DHT22;3114;48.362;10.994;2022-10-16T03:07:11;16.40;99.90
6164;DHT22;3114;48.362;10.994;2022-10-16T03:09:38;16.30;99.90
6164;DHT22;3114;48.362;10.994;2022-10-16T03:12:05;16.30;99.90
6164;DHT22;3114;48.362;10.994;2022-10-16T03:14:32;16.30;99.90
6164;DHT22;3114;48.362;10.994;2022-10-16T03:16:59;16.30;99.90
6164;DHT22;3114;48.362;10.994;2022-10-16T03:19:27;16.30;99.90
6164;DHT22;3114;48.362;10.994;2022-10-16T03:21:54;16.30;99.90
6164;DHT22;3114;48.362;10.994;2022-10-16T03:24:21;16.30;99.90
6164;DHT22;3114;48.362;10.994;2022-10-16T03:26:47;16.20;99.90
6164;DHT22;3114;48.362;10.994;2022-10-16T03:29:14;16.30;99.90
6164;DHT22;3114;48.362;10.994;2022-10-16T03:31:41;16.30;99.90
6164;DHT22;3114;48.362;10.994;2022-10-16T03:34:08;16.30;99.90
6164;DHT22;3114;48.362;10.994;2022-10-16T03:36:36;16.30;99.90
6164;DHT22;3114;48.362;10.994;2022-10-16T03:39:03;16.40;99.90
6164;DHT22;3114;48.362;10.994;2022-10-16T03:41:30;16.40;99.90
6164;DHT22;3114;48.362;10.994;2022-10-16T03:43:57;16.50;99.90
6164;DHT22;3114;48.362;10.994;2022-10-16T03:46:23;16.40;99.90
6164;DHT22;3114;48.362;10.994;2022-10-16T03:48:50;16.40;99.90
6164;DHT22;3114;48.362;10.994;2022-10-16T03:51:17;16.40;99.90
6164;DHT22;3114;48.362;10.994;2022-10-16T03:53:45;16.50;99.90
6164;DHT22;3114;48.362;10.994;2022-10-16T03:56:12;16.50;99.90
6164;DHT22;3114;48.362;10.994;2022-10-16T03:58:39;16.50;99.90
6164;DHT22;3114;48.362;10.994;2022-10-16T04:01:06;16.50;99.90
6164;DHT22;3114;48.362;10.994;2022-10-16T04:03:33;16.50;99.90
6164;DHT22;3114;48.362;10.994;2022-10-16T04:06:00;16.50;99.90
6164;DHT22;3114;48.362;10.994;2022-10-16T04:08:27;16.40;99.90
6164;DHT22;3114;48.362;10.994;2022-10-16T04:10:55;16.40;99.90
6164;DHT22;3114;48.362;10.994;2022-10-16T04:13:22;16.40;99.90
6164;DHT22;3114;48.362;10.994;2022-10-16T04:15:49;16.40;99.90
6164;DHT22;3114;48.362;10.994;2022-10-16T04:18:15;16.40;99.90
6164;DHT22;3114;48.362;10.994;2022-10-16T04:20:42;16.40;99.90
6164;DHT22;3114;48.362;10.994;2022-10-16T04:23:09;16.50;99.90
6164;DHT22;3114;48.362;10.994;2022-10-16T04:25:36;16.40;99.90
6164;DHT22;3114;48.362;10.994;2022-10-16T04:28:04;16.40;99.90
6164;DHT22;3114;48.362;10.994;2022-10-16T04:30:31;16.40;99.90
6164;DHT22;3114;48.362;10.994;2022-10-16T04:32:59;16.40;99.90
6164;DHT22;3114;48.362;10.994;2022-10-16T04:35:25;16.40;99.90
6164;DHT22;3114;48.362;10.994;2022-10-16T04:37:52;16.40;99.90
6164;DHT22;3114;48.362;10.994;2022-10-16T04:40:19;16.40;99.90
6164;DHT22;3114;48.362;10.994;2022-10-16T04:42:46;16.40;99.90
6164;DHT22;3114;48.362;10.994;2022-10-16T04:45:14;16.30;99.90
6164;DHT22;3114;48.362;10.994;2022-10-16T04:47:41;16.30;99.90
6164;DHT22;3114;48.362;10.994;2022-10-16T04:50:08;16.30;99.90
6164;DHT22;3114;48.362;10.994;2022-10-16T04:52:35;16.20;99.90
6164;DHT22;3114;48.362;10.994;2022-10-16T04:55:02;16.20;99.90
6164;DHT22;3114;48.362;10.994;2022-10-16T04:57:29;16.10;99.90
6164;DHT22;3114;48.362;10.994;2022-10-16T04:59:56;16.10;99.90
6164;DHT22;3114;48.362;10.994;2022-10-16T05:02:25;16.10;99.90
6164;DHT22;3114;48.362;10.994;2022-10-16T05:04:52;16.10;99.90
6164;DHT22;3114;48.362;10.994;2022-10-16T05:07:18;15.90;99.90
6164;DHT22;3114;48.362;10.994;2022-10-16T05:09:45;15.90;99.90
6164;DHT22;3114;48.362;10.994;2022-10-16T05:12:12;15.80;99.90
6164;DHT22;3114;48.362;10.994;2022-10-16T05:14:39;15.90;99.90
6164;DHT22;3114;48.362;10.994;2022-10-16T05:17:06;15.90;99.90
6164;DHT22;3114;48.362;10.994;2022-10-16T05:19:34;15.90;99.90
6164;DHT22;3114;48.362;10.994;2022-10-16T05:22:01;15.90;99.90
6164;DHT22;3114;48.362;10.994;2022-10-16T05:24:28;16.00;99.90
6164;DHT22;3114;48.362;10.994;2022-10-16T05:26:55;15.90;99.90
6164;DHT22;3114;48.362;10.994;2022-10-16T05:29:22;15.90;99.90
6164;DHT22;3114;48.362;10.994;2022-10-16T05:31:50;15.90;99.90
6164;DHT22;3114;48.362;10.994;2022-10-16T05:34:18;15.80;99.90
6164;DHT22;3114;48.362;10.994;2022-10-16T05:36:46;15.80;99.90
6164;DHT22;3114;48.362;10.994;2022-10-16T05:39:14;15.80;99.90
6164;DHT22;3114;48.362;10.994;2022-10-16T05:41:43;15.80;99.90
6164;DHT22;3114;48.362;10.994;2022-10-16T05:44:11;15.80;99.90
6164;DHT22;3114;48.362;10.994;2022-10-16T05:46:38;15.80;99.90
6164;DHT22;3114;48.362;10.994;2022-10-16T05:49:05;15.90;99.90
6164;DHT22;3114;48.362;10.994;2022-10-16T05:51:31;15.80;99.90
6164;DHT22;3114;48.362;10.994;2022-10-16T05:54:00;15.80;99.90
6164;DHT22;3114;48.362;10.994;2022-10-16T05:56:26;15.80;99.90
6164;DHT22;3114;48.362;10.994;2022-10-16T05:58:54;15.80;99.90
6164;DHT22;3114;48.362;10.994;2022-10-16T06:01:21;15.80;99.90
6164;DHT22;3114;48.362;10.994;2022-10-16T06:03:50;15.80;99.90
6164;DHT22;3114;48.362;10.994;2022-10-16T06:06:18;15.90;99.90
6164;DHT22;3114;48.362;10.994;2022-10-16T06:08:46;15.90;99.90
6164;DHT22;3114;48.362;10.994;2022-10-16T06:11:16;15.90;99.90
6164;DHT22;3114;48.362;10.994;2022-10-16T06:13:43;16.00;99.90
6164;DHT22;3114;48.362;10.994;2022-10-16T06:16:12;16.00;99.90
6164;DHT22;3114;48.362;10.994;2022-10-16T06:18:39;16.00;99.90
6164;DHT22;3114;48.362;10.994;2022-10-16T06:21:08;16.00;99.90
6164;DHT22;3114;48.362;10.994;2022-10-16T06:23:35;16.00;99.90
6164;DHT22;3114;48.362;10.994;2022-10-16T06:26:06;16.00;99.90
6164;DHT22;3114;48.362;10.994;2022-10-16T06:28:35;16.00;99.90
6164;DHT22;3114;48.362;10.994;2022-10-16T06:31:02;16.00;99.90
6164;DHT22;3114;48.362;10.994;2022-10-16T06:33:30;16.10;99.90
6164;DHT22;3114;48.362;10.994;2022-10-16T06:36:01;16.20;99.90
6164;DHT22;3114;48.362;10.994;2022-10-16T06:38:28;16.20;99.90
6164;DHT22;3114;48.362;10.994;2022-10-16T06:40:56;16.30;99.90
6164;DHT22;3114;48.362;10.994;2022-10-16T06:43:22;16.30;99.90
6164;DHT22;3114;48.362;10.994;2022-10-16T06:45:54;16.30;99.90
6164;DHT22;3114;48.362;10.994;2022-10-16T06:48:21;16.40;99.90
6164;DHT22;3114;48.362;10.994;2022-10-16T06:50:59;16.20;99.90
6164;DHT22;3114;48.362;10.994;2022-10-16T06:53:27;16.30;99.90
6164;DHT22;3114;48.362;10.994;2022-10-16T06:55:54;16.40;99.90
6164;DHT22;3114;48.362;10.994;2022-10-16T06:58:22;16.40;99.90
6164;DHT22;3114;48.362;10.994;2022-10-16T07:00:56;16.40;99.90
6164;DHT22;3114;48.362;10.994;2022-10-16T07:03:23;16.30;99.90
6164;DHT22;3114;48.362;10.994;2022-10-16T07:05:50;16.30;99.90
6164;DHT22;3114;48.362;10.994;2022-10-16T07:08:17;16.30;99.90
6164;DHT22;3114;48.362;10.994;2022-10-16T07:10:43;16.40;99.90
6164;DHT22;3114;48.362;10.994;2022-10-16T07:13:10;16.40;99.90
6164;DHT22;3114;48.362;10.994;2022-10-16T07:15:38;16.50;99.90
6164;DHT22;3114;48.362;10.994;2022-10-16T07:18:07;16.50;99.90
6164;DHT22;3114;48.362;10.994;2022-10-16T07:20:33;16.60;99.90
6164;DHT22;3114;48.362;10.994;2022-10-16T07:23:00;16.70;99.90
6164;DHT22;3114;48.362;10.994;2022-10-16T07:25:27;16.80;99.90
6164;DHT22;3114;48.362;10.994;2022-10-16T07:27:54;16.80;99.90
6164;DHT22;3114;48.362;10.994;2022-10-16T07:30:21;16.80;99.90
6164;DHT22;3114;48.362;10.994;2022-10-16T07:32:48;16.80;99.90
6164;DHT22;3114;48.362;10.994;2022-10-16T07:35:16;16.80;99.90
6164;DHT22;3114;48.362;10.994;2022-10-16T07:37:44;16.80;99.90
6164;DHT22;3114;48.362;10.994;2022-10-16T07:40:12;16.90;99.90
6164;DHT22;3114;48.362;10.994;2022-10-16T07:42:39;16.90;99.90
6164;DHT22;3114;48.362;10.994;2022-10-16T07:45:06;16.90;99.90
6164;DHT22;3114;48.362;10.994;2022-10-16T07:47:33;16.90;99.90
6164;DHT22;3114;48.362;10.994;2022-10-16T07:50:00;16.90;99.90
6164;DHT22;3114;48.362;10.994;2022-10-16T07:52:28;16.90;99.90
6164;DHT22;3114;48.362;10.994;2022-10-16T07:54:55;16.90;99.90
6164;DHT22;3114;48.362;10.994;2022-10-16T07:57:22;17.00;99.90
6164;DHT22;3114;48.362;10.994;2022-10-16T07:59:49;17.00;99.90
6164;DHT22;3114;48.362;10.994;2022-10-16T08:02:15;17.10;99.90
6164;DHT22;3114;48.362;10.994;2022-10-16T08:04:42;17.10;99.90
6164;DHT22;3114;48.362;10.994;2022-10-16T08:07:09;17.10;99.90
6164;DHT22;3114;48.362;10.994;2022-10-16T08:09:37;17.10;99.90
6164;DHT22;3114;48.362;10.994;2022-10-16T08:12:04;17.20;99.90
6164;DHT22;3114;48.362;10.994;2022-10-16T08:14:31;17.30;99.90
6164;DHT22;3114;48.362;10.994;2022-10-16T08:16:57;17.40;99.90
6164;DHT22;3114;48.362;10.994;2022-10-16T08:19:24;17.40;99.90
6164;DHT22;3114;48.362;10.994;2022-10-16T08:21:51;17.50;99.90
6164;DHT22;3114;48.362;10.994;2022-10-16T08:24:18;17.60;99.90
6164;DHT22;3114;48.362;10.994;2022-10-16T08:26:46;17.80;99.90
6164;DHT22;3114;48.362;10.994;2022-10-16T08:29:13;18.00;99.90
6164;DHT22;3114;48.362;10.994;2022-10-16T08:31:40;18.00;99.90
6164;DHT22;3114;48.362;10.994;2022-10-16T08:34:07;18.20;99.90
6164;DHT22;3114;48.362;10.994;2022-10-16T08:36:34;18.20;99.90
6164;DHT22;3114;48.362;10.994;2022-10-16T08:39:01;18.10;99.90
6164;DHT22;3114;48.362;10.994;2022-10-16T08:42:02;18.10;99.90
6164;DHT22;3114;48.362;10.994;2022-10-16T08:45:02;18.10;99.90
6164;DHT22;3114;48.362;10.994;2022-10-16T08:47:42;18.10;99.90
6164;DHT22;3114;48.362;10.994;2022-10-16T08:50:13;18.10;99.90
6164;DHT22;3114;48.362;10.994;2022-10-16T08:52:42;18.10;99.90
6164;DHT22;3114;48.362;10.994;2022-10-16T08:55:19;18.10;99.90
6164;DHT22;3114;48.362;10.994;2022-10-16T08:57:51;18.10;99.90
6164;DHT22;3114;48.362;10.994;2022-10-16T09:00:19;18.10;99.90
6164;DHT22;3114;48.362;10.994;2022-10-16T09:02:53;18.20;99.90
6164;DHT22;3114;48.362;10.994;2022-10-16T09:05:49;18.30;99.90
6164;DHT22;3114;48.362;10.994;2022-10-16T09:08:26;18.40;99.90
6164;DHT22;3114;48.362;10.994;2022-10-16T09:10:59;18.60;99.90
6164;DHT22;3114;48.362;10.994;2022-10-16T09:13:37;18.80;99.90
6164;DHT22;3114;48.362;10.994;2022-10-16T09:16:16;18.90;99.90
6164;DHT22;3114;48.362;10.994;2022-10-16T09:18:52;18.90;99.90
6164;DHT22;3114;48.362;10.994;2022-10-16T09:21:24;18.90;99.90
6164;DHT22;3114;48.362;10.994;2022-10-16T09:23:54;19.00;99.90
6164;DHT22;3114;48.362;10.994;2022-10-16T09:26:24;19.00;99.90
6164;DHT22;3114;48.362;10.994;2022-10-16T09:28:53;19.10;99.90
6164;DHT22;3114;48.362;10.994;2022-10-16T09:31:22;19.20;99.90
6164;DHT22;3114;48.362;10.994;2022-10-16T09:33:55;19.30;99.90
6164;DHT22;3114;48.362;10.994;2022-10-16T09:36:24;19.50;99.90
6164;DHT22;3114;48.362;10.994;2022-10-16T09:39:03;19.60;99.90
6164;DHT22;3114;48.362;10.994;2022-10-16T09:41:33;19.60;99.90
6164;DHT22;3114;48.362;10.994;2022-10-16T09:44:02;19.70;99.90
6164;DHT22;3114;48.362;10.994;2022-10-16T09:46:33;19.90;99.90
6164;DHT22;3114;48.362;10.994;2022-10-16T09:49:02;20.10;99.90
6164;DHT22;3114;48.362;10.994;2022-10-16T09:51:30;20.40;99.90
6164;DHT22;3114;48.362;10.994;2022-10-16T09:53:59;20.60;99.90
6164;DHT22;3114;48.362;10.994;2022-10-16T09:56:28;20.70;99.90
6164;DHT22;3114;48.362;10.994;2022-10-16T09:58:57;20.70;99.90
6164;DHT22;3114;48.362;10.994;2022-10-16T10:01:30;20.70;99.90
6164;DHT22;3114;48.362;10.994;2022-10-16T10:03:58;20.60;99.90
6164;DHT22;3114;48.362;10.994;2022-10-16T10:06:30;20.70;99.90
6164;DHT22;3114;48.362;10.994;2022-10-16T10:09:04;20.90;99.90
6164;DHT22;3114;48.362;10.994;2022-10-16T10:11:49;21.20;99.90
6164;DHT22;3114;48.362;10.994;2022-10-16T10:14:27;21.30;99.90
6164;DHT22;3114;48.362;10.994;2022-10-16T10:17:13;21.40;99.90
6164;DHT22;3114;48.362;10.994;2022-10-16T10:19:43;21.30;99.90
6164;DHT22;3114;48.362;10.994;2022-10-16T10:22:18;21.30;99.90
6164;DHT22;3114;48.362;10.994;2022-10-16T10:24:55;21.50;99.90
6164;DHT22;3114;48.362;10.994;2022-10-16T10:27:27;21.60;99.90
6164;DHT22;3114;48.362;10.994;2022-10-16T10:30:02;21.90;99.90
6164;DHT22;3114;48.362;10.994;2022-10-16T10:32:39;21.70;99.90
6164;DHT22;3114;48.362;10.994;2022-10-16T10:35:17;21.70;99.90
6164;DHT22;3114;48.362;10.994;2022-10-16T10:38:00;21.70;99.90
6164;DHT22;3114;48.362;10.994;2022-10-16T10:40:38;22.00;99.90
6164;DHT22;3114;48.362;10.994;2022-10-16T10:43:11;22.40;99.90
6164;DHT22;3114;48.362;10.994;2022-10-16T10:45:42;22.30;99.90
6164;DHT22;3114;48.362;10.994;2022-10-16T10:48:23;22.50;99.90
6164;DHT22;3114;48.362;10.994;2022-10-16T10:50:55;22.40;99.90
6164;DHT22;3114;48.362;10.994;2022-10-16T10:53:31;22.30;99.90
6164;DHT22;3114;48.362;10.994;2022-10-16T10:56:09;22.30;99.90
6164;DHT22;3114;48.362;10.994;2022-10-16T10:59:02;22.50;99.90
6164;DHT22;3114;48.362;10.994;2022-10-16T11:01:39;22.50;99.90
6164;DHT22;3114;48.362;10.994;2022-10-16T11:04:34;22.80;99.90
6164;DHT22;3114;48.362;10.994;2022-10-16T11:07:05;23.00;99.90
6164;DHT22;3114;48.362;10.994;2022-10-16T11:09:38;23.70;99.90
6164;DHT22;3114;48.362;10.994;2022-10-16T11:12:14;24.80;99.90
6164;DHT22;3114;48.362;10.994;2022-10-16T11:14:49;25.70;99.90
6164;DHT22;3114;48.362;10.994;2022-10-16T11:17:22;26.80;99.90
6164;DHT22;3114;48.362;10.994;2022-10-16T11:19:56;26.30;99.90
6164;DHT22;3114;48.362;10.994;2022-10-16T11:22:30;25.90;99.90
6164;DHT22;3114;48.362;10.994;2022-10-16T11:25:05;25.90;99.90
6164;DHT22;3114;48.362;10.994;2022-10-16T11:27:41;28.70;99.90
6164;DHT22;3114;48.362;10.994;2022-10-16T11:30:16;31.90;99.90
6164;DHT22;3114;48.362;10.994;2022-10-16T11:33:04;34.20;99.90
6164;DHT22;3114;48.362;10.994;2022-10-16T11:35:43;35.00;99.90
6164;DHT22;3114;48.362;10.994;2022-10-16T11:38:15;36.30;99.90
6164;DHT22;3114;48.362;10.994;2022-10-16T11:40:49;36.20;99.90
6164;DHT22;3114;48.362;10.994;2022-10-16T11:43:24;35.90;99.90
6164;DHT22;3114;48.362;10.994;2022-10-16T11:45:54;36.10;99.90
6164;DHT22;3114;48.362;10.994;2022-10-16T11:48:26;36.90;99.90
6164;DHT22;3114;48.362;10.994;2022-10-16T11:50:58;37.50;99.90
6164;DHT22;3114;48.362;10.994;2022-10-16T11:53:39;38.50;99.90
6164;DHT22;3114;48.362;10.994;2022-10-16T11:56:12;34.40;99.90
6164;DHT22;3114;48.362;10.994;2022-10-16T11:58:44;31.80;99.90
6164;DHT22;3114;48.362;10.994;2022-10-16T12:01:20;30.30;99.90
6164;DHT22;3114;48.362;10.994;2022-10-16T12:03:59;28.90;99.90
6164;DHT22;3114;48.362;10.994;2022-10-16T12:06:34;28.50;99.90
6164;DHT22;3114;48.362;10.994;2022-10-16T12:09:03;28.20;99.90
6164;DHT22;3114;48.362;10.994;2022-10-16T12:11:36;28.80;99.90
6164;DHT22;3114;48.362;10.994;2022-10-16T12:14:06;30.20;99.90
6164;DHT22;3114;48.362;10.994;2022-10-16T12:16:36;29.90;99.90
6164;DHT22;3114;48.362;10.994;2022-10-16T12:19:11;28.20;99.90
6164;DHT22;3114;48.362;10.994;2022-10-16T12:21:40;27.10;99.90
6164;DHT22;3114;48.362;10.994;2022-10-16T12:24:24;26.30;99.90
6164;DHT22;3114;48.362;10.994;2022-10-16T12:26:54;27.10;99.90
6164;DHT22;3114;48.362;10.994;2022-10-16T12:29:31;30.20;99.90
6164;DHT22;3114;48.362;10.994;2022-10-16T12:31:59;32.00;99.90
6164;DHT22;3114;48.362;10.994;2022-10-16T12:34:28;32.80;99.90
6164;DHT22;3114;48.362;10.994;2022-10-16T12:37:09;34.20;99.90
6164;DHT22;3114;48.362;10.994;2022-10-16T12:39:36;36.10;99.90
6164;DHT22;3114;48.362;10.994;2022-10-16T12:42:05;37.00;99.90
6164;DHT22;3114;48.362;10.994;2022-10-16T12:44:33;37.50;99.90
6164;DHT22;3114;48.362;10.994;2022-10-16T12:47:01;36.50;99.90
6164;DHT22;3114;48.362;10.994;2022-10-16T12:49:35;36.60;99.90
6164;DHT22;3114;48.362;10.994;2022-10-16T12:52:04;35.00;99.90
6164;DHT22;3114;48.362;10.994;2022-10-16T12:54:36;34.30;99.90
6164;DHT22;3114;48.362;10.994;2022-10-16T12:57:19;33.70;99.90
6164;DHT22;3114;48.362;10.994;2022-10-16T12:59:57;32.60;99.90
6164;DHT22;3114;48.362;10.994;2022-10-16T13:05:32;32.80;99.90
6164;DHT22;3114;48.362;10.994;2022-10-16T13:08:18;34.50;99.90
6164;DHT22;3114;48.362;10.994;2022-10-16T13:10:57;35.50;99.90
6164;DHT22;3114;48.362;10.994;2022-10-16T13:13:53;35.90;99.90
6164;DHT22;3114;48.362;10.994;2022-10-16T13:16:29;35.60;99.90
6164;DHT22;3114;48.362;10.994;2022-10-16T13:19:06;35.00;99.90
6164;DHT22;3114;48.362;10.994;2022-10-16T13:21:43;34.10;99.90
6164;DHT22;3114;48.362;10.994;2022-10-16T13:24:32;33.10;99.90
6164;DHT22;3114;48.362;10.994;2022-10-16T13:27:09;32.20;99.90
6164;DHT22;3114;48.362;10.994;2022-10-16T13:29:40;31.50;99.90
6164;DHT22;3114;48.362;10.994;2022-10-16T13:32:10;31.00;99.90
6164;DHT22;3114;48.362;10.994;2022-10-16T13:34:44;30.60;99.90
6164;DHT22;3114;48.362;10.994;2022-10-16T13:37:18;30.20;99.90
6164;DHT22;3114;48.362;10.994;2022-10-16T13:39:46;29.80;99.90
6164;DHT22;3114;48.362;10.994;2022-10-16T13:42:22;29.50;99.90
6164;DHT22;3114;48.362;10.994;2022-10-16T13:44:52;29.30;99.90
6164;DHT22;3114;48.362;10.994;2022-10-16T13:47:21;29.10;99.90
6164;DHT22;3114;48.362;10.994;2022-10-16T13:49:59;29.00;99.90
6164;DHT22;3114;48.362;10.994;2022-10-16T13:52:27;28.60;99.90
6164;DHT22;3114;48.362;10.994;2022-10-16T13:54:55;28.60;99.90
6164;DHT22;3114;48.362;10.994;2022-10-16T13:57:23;28.50;99.90
6164;DHT22;3114;48.362;10.994;2022-10-16T13:59:50;28.30;99.90
6164;DHT22;3114;48.362;10.994;2022-10-16T14:02:21;28.00;99.90
6164;DHT22;3114;48.362;10.994;2022-10-16T14:04:49;27.80;99.90
6164;DHT22;3114;48.362;10.994;2022-10-16T14:07:22;27.50;99.90
6164;DHT22;3114;48.362;10.994;2022-10-16T14:09:50;27.30;99.90
6164;DHT22;3114;48.362;10.994;2022-10-16T14:12:19;27.10;99.90
6164;DHT22;3114;48.362;10.994;2022-10-16T14:14:48;26.90;99.90
6164;DHT22;3114;48.362;10.994;2022-10-16T14:17:17;26.80;99.90
6164;DHT22;3114;48.362;10.994;2022-10-16T14:19:46;26.50;99.90
6164;DHT22;3114;48.362;10.994;2022-10-16T14:22:27;26.40;99.90
6164;DHT22;3114;48.362;10.994;2022-10-16T14:24:54;26.30;99.90
6164;DHT22;3114;48.362;10.994;2022-10-16T14:27:30;26.10;99.90
6164;DHT22;3114;48.362;10.994;2022-10-16T14:30:14;25.90;99.90
6164;DHT22;3114;48.362;10.994;2022-10-16T14:32:52;25.70;99.90
6164;DHT22;3114;48.362;10.994;2022-10-16T14:35:27;25.50;99.90
6164;DHT22;3114;48.362;10.994;2022-10-16T14:37:55;25.30;99.90
6164;DHT22;3114;48.362;10.994;2022-10-16T14:40:25;25.30;99.90
6164;DHT22;3114;48.362;10.994;2022-10-16T14:42:54;25.20;99.90
6164;DHT22;3114;48.362;10.994;2022-10-16T14:45:22;25.10;99.90
6164;DHT22;3114;48.362;10.994;2022-10-16T14:47:52;25.00;99.90
6164;DHT22;3114;48.362;10.994;2022-10-16T14:50:19;24.90;99.90
6164;DHT22;3114;48.362;10.994;2022-10-16T14:52:46;24.80;99.90
6164;DHT22;3114;48.362;10.994;2022-10-16T14:55:13;24.70;99.90
6164;DHT22;3114;48.362;10.994;2022-10-16T14:57:40;24.60;99.90
6164;DHT22;3114;48.362;10.994;2022-10-16T15:00:18;24.50;99.90
6164;DHT22;3114;48.362;10.994;2022-10-16T15:02:46;24.40;99.90
6164;DHT22;3114;48.362;10.994;2022-10-16T15:05:16;24.30;99.90
6164;DHT22;3114;48.362;10.994;2022-10-16T15:07:43;24.20;99.90
6164;DHT22;3114;48.362;10.994;2022-10-16T15:10:11;24.10;99.90
6164;DHT22;3114;48.362;10.994;2022-10-16T15:12:38;24.10;99.90
6164;DHT22;3114;48.362;10.994;2022-10-16T15:15:35;24.00;99.90
6164;DHT22;3114;48.362;10.994;2022-10-16T15:18:03;24.00;99.90
6164;DHT22;3114;48.362;10.994;2022-10-16T15:20:32;23.80;99.90
6164;DHT22;3114;48.362;10.994;2022-10-16T15:23:00;23.60;99.90
6164;DHT22;3114;48.362;10.994;2022-10-16T15:25:33;23.50;99.90
6164;DHT22;3114;48.362;10.994;2022-10-16T15:28:02;23.40;99.90
6164;DHT22;3114;48.362;10.994;2022-10-16T15:30:30;23.40;99.90
6164;DHT22;3114;48.362;10.994;2022-10-16T15:32:57;23.40;99.90
6164;DHT22;3114;48.362;10.994;2022-10-16T15:35:24;23.30;99.90
6164;DHT22;3114;48.362;10.994;2022-10-16T15:37:51;23.30;99.90
6164;DHT22;3114;48.362;10.994;2022-10-16T15:40:19;23.20;99.90
6164;DHT22;3114;48.362;10.994;2022-10-16T15:42:47;23.10;99.90
6164;DHT22;3114;48.362;10.994;2022-10-16T15:45:14;23.10;99.90
6164;DHT22;3114;48.362;10.994;2022-10-16T15:47:42;23.00;99.90
6164;DHT22;3114;48.362;10.994;2022-10-16T15:50:10;22.90;99.90
6164;DHT22;3114;48.362;10.994;2022-10-16T15:52:38;22.80;99.90
6164;DHT22;3114;48.362;10.994;2022-10-16T15:55:06;22.80;99.90
6164;DHT22;3114;48.362;10.994;2022-10-16T15:57:33;22.60;99.90
6164;DHT22;3114;48.362;10.994;2022-10-16T16:00:05;22.50;99.90
6164;DHT22;3114;48.362;10.994;2022-10-16T16:02:32;22.50;99.90
6164;DHT22;3114;48.362;10.994;2022-10-16T16:05:00;22.50;99.90
6164;DHT22;3114;48.362;10.994;2022-10-16T16:07:27;22.30;99.90
6164;DHT22;3114;48.362;10.994;2022-10-16T16:09:54;22.30;99.90